sensor_id;sensor_type;location;lat;lon;timestamp;P1;durP1;ratioP1;P2;durP2;ratioP2
59006;SDS011;44792;52.760;6.726;2024-02-04T00:01:41;11.50;;;4.40;;
59006;SDS011;44792;52.760;6.726;2024-02-04T00:04:06;22.48;;;5.28;;
59006;SDS011;44792;52.760;6.726;2024-02-04T00:06:32;16.98;;;5.75;;
59006;SDS011;44792;52.760;6.726;2024-02-04T00:08:58;14.50;;;5.47;;
59006;SDS011;44792;52.760;6.726;2024-02-04T00:11:24;14.57;;;5.13;;
59006;SDS011;44792;52.760;6.726;2024-02-04T00:13:51;16.65;;;5.43;;
59006;SDS011;44792;52.760;6.726;2024-02-04T00:16:17;16.35;;;5.55;;
59006;SDS011;44792;52.760;6.726;2024-02-04T00:18:43;19.98;;;5.25;;
59006;SDS011;44792;52.760;6.726;2024-02-04T00:21:08;20.23;;;5.68;;
59006;SDS011;44792;52.760;6.726;2024-02-04T00:23:34;12.13;;;5.63;;
59006;SDS011;44792;52.760;6.726;2024-02-04T00:26:00;16.95;;;5.38;;
59006;SDS011;44792;52.760;6.726;2024-02-04T00:28:26;13.18;;;5.13;;
59006;SDS011;44792;52.760;6.726;2024-02-04T00:30:53;18.98;;;6.50;;
59006;SDS011;44792;52.760;6.726;2024-02-04T00:33:21;18.20;;;6.10;;
59006;SDS011;44792;52.760;6.726;2024-02-04T00:35:47;16.77;;;5.55;;
59006;SDS011;44792;52.760;6.726;2024-02-04T00:38:13;11.82;;;4.78;;
59006;SDS011;44792;52.760;6.726;2024-02-04T00:40:39;15.00;;;5.57;;
59006;SDS011;44792;52.760;6.726;2024-02-04T00:43:04;16.08;;;4.95;;
59006;SDS011;44792;52.760;6.726;2024-02-04T00:45:30;11.60;;;4.85;;
59006;SDS011;44792;52.760;6.726;2024-02-04T00:47:56;14.45;;;5.63;;
59006;SDS011;44792;52.760;6.726;2024-02-04T00:50:22;14.90;;;6.18;;
59006;SDS011;44792;52.760;6.726;2024-02-04T00:52:48;15.73;;;6.50;;
59006;SDS011;44792;52.760;6.726;2024-02-04T00:55:13;10.98;;;4.95;;
59006;SDS011;44792;52.760;6.726;2024-02-04T00:57:39;15.32;;;5.45;;
59006;SDS011;44792;52.760;6.726;2024-02-04T01:00:05;18.35;;;5.10;;
59006;SDS011;44792;52.760;6.726;2024-02-04T01:02:32;20.10;;;5.93;;
59006;SDS011;44792;52.760;6.726;2024-02-04T01:04:59;19.88;;;5.63;;
59006;SDS011;44792;52.760;6.726;2024-02-04T01:07:25;18.77;;;5.75;;
59006;SDS011;44792;52.760;6.726;2024-02-04T01:09:50;11.65;;;5.95;;
59006;SDS011;44792;52.760;6.726;2024-02-04T01:12:16;18.15;;;6.80;;
59006;SDS011;44792;52.760;6.726;2024-02-04T01:14:42;20.80;;;6.65;;
59006;SDS011;44792;52.760;6.726;2024-02-04T01:17:08;16.23;;;5.90;;
59006;SDS011;44792;52.760;6.726;2024-02-04T01:19:34;19.48;;;5.75;;
59006;SDS011;44792;52.760;6.726;2024-02-04T01:21:59;15.82;;;6.72;;
59006;SDS011;44792;52.760;6.726;2024-02-04T01:24:25;17.40;;;5.70;;
59006;SDS011;44792;52.760;6.726;2024-02-04T01:26:51;16.02;;;5.32;;
59006;SDS011;44792;52.760;6.726;2024-02-04T01:29:16;18.27;;;6.07;;
59006;SDS011;44792;52.760;6.726;2024-02-04T01:31:42;16.05;;;4.45;;
59006;SDS011;44792;52.760;6.726;2024-02-04T01:34:08;12.40;;;4.55;;
59006;SDS011;44792;52.760;6.726;2024-02-04T01:36:34;17.40;;;5.03;;
59006;SDS011;44792;52.760;6.726;2024-02-04T01:38:59;17.77;;;4.25;;
59006;SDS011;44792;52.760;6.726;2024-02-04T01:41:25;13.55;;;3.95;;
59006;SDS011;44792;52.760;6.726;2024-02-04T01:43:52;15.52;;;3.60;;
59006;SDS011;44792;52.760;6.726;2024-02-04T01:46:21;18.13;;;4.07;;
59006;SDS011;44792;52.760;6.726;2024-02-04T01:48:47;7.80;;;3.00;;
59006;SDS011;44792;52.760;6.726;2024-02-04T01:51:14;9.98;;;3.38;;
59006;SDS011;44792;52.760;6.726;2024-02-04T01:53:42;12.27;;;3.10;;
59006;SDS011;44792;52.760;6.726;2024-02-04T01:56:10;14.57;;;3.15;;
59006;SDS011;44792;52.760;6.726;2024-02-04T01:58:37;11.90;;;2.58;;
59006;SDS011;44792;52.760;6.726;2024-02-04T02:01:04;9.50;;;2.85;;
59006;SDS011;44792;52.760;6.726;2024-02-04T02:03:30;7.53;;;3.13;;
59006;SDS011;44792;52.760;6.726;2024-02-04T02:05:57;7.35;;;2.83;;
59006;SDS011;44792;52.760;6.726;2024-02-04T02:08:24;7.43;;;3.13;;
59006;SDS011;44792;52.760;6.726;2024-02-04T02:10:50;10.55;;;2.08;;
59006;SDS011;44792;52.760;6.726;2024-02-04T02:13:27;11.17;;;3.27;;
59006;SDS011;44792;52.760;6.726;2024-02-04T02:16:01;9.60;;;2.38;;
59006;SDS011;44792;52.760;6.726;2024-02-04T02:24:42;10.40;;;2.85;;
59006;SDS011;44792;52.760;6.726;2024-02-04T02:27:07;8.23;;;3.05;;
59006;SDS011;44792;52.760;6.726;2024-02-04T02:29:33;9.05;;;2.90;;
59006;SDS011;44792;52.760;6.726;2024-02-04T02:32:01;6.63;;;2.63;;
59006;SDS011;44792;52.760;6.726;2024-02-04T02:34:28;14.40;;;3.17;;
59006;SDS011;44792;52.760;6.726;2024-02-04T02:36:57;11.35;;;3.15;;
59006;SDS011;44792;52.760;6.726;2024-02-04T02:39:31;10.50;;;3.28;;
59006;SDS011;44792;52.760;6.726;2024-02-04T02:41:59;12.23;;;3.47;;
59006;SDS011;44792;52.760;6.726;2024-02-04T02:44:28;9.88;;;3.78;;
59006;SDS011;44792;52.760;6.726;2024-02-04T02:46:55;11.40;;;3.97;;
59006;SDS011;44792;52.760;6.726;2024-02-04T02:49:22;14.68;;;4.13;;
59006;SDS011;44792;52.760;6.726;2024-02-04T02:51:48;15.88;;;5.25;;
59006;SDS011;44792;52.760;6.726;2024-02-04T02:54:14;15.15;;;5.97;;
59006;SDS011;44792;52.760;6.726;2024-02-04T02:56:39;12.95;;;5.93;;
59006;SDS011;44792;52.760;6.726;2024-02-04T02:59:05;16.92;;;5.85;;
59006;SDS011;44792;52.760;6.726;2024-02-04T03:01:31;17.85;;;6.18;;
59006;SDS011;44792;52.760;6.726;2024-02-04T03:03:57;14.70;;;6.10;;
59006;SDS011;44792;52.760;6.726;2024-02-04T03:06:22;21.85;;;5.63;;
59006;SDS011;44792;52.760;6.726;2024-02-04T03:08:48;13.02;;;5.80;;
59006;SDS011;44792;52.760;6.726;2024-02-04T03:11:13;11.73;;;6.47;;
59006;SDS011;44792;52.760;6.726;2024-02-04T03:13:40;10.63;;;5.40;;
59006;SDS011;44792;52.760;6.726;2024-02-04T03:16:09;13.38;;;5.53;;
59006;SDS011;44792;52.760;6.726;2024-02-04T03:18:38;17.40;;;5.40;;
59006;SDS011;44792;52.760;6.726;2024-02-04T03:21:17;11.48;;;5.25;;
59006;SDS011;44792;52.760;6.726;2024-02-04T03:23:43;7.97;;;4.68;;
59006;SDS011;44792;52.760;6.726;2024-02-04T03:26:09;9.15;;;4.15;;
59006;SDS011;44792;52.760;6.726;2024-02-04T03:28:36;13.00;;;4.97;;
59006;SDS011;44792;52.760;6.726;2024-02-04T03:31:02;10.85;;;5.63;;
59006;SDS011;44792;52.760;6.726;2024-02-04T03:33:28;9.85;;;4.60;;
59006;SDS011;44792;52.760;6.726;2024-02-04T03:35:54;9.90;;;4.00;;
59006;SDS011;44792;52.760;6.726;2024-02-04T03:38:19;17.60;;;4.00;;
59006;SDS011;44792;52.760;6.726;2024-02-04T03:40:45;10.25;;;4.15;;
59006;SDS011;44792;52.760;6.726;2024-02-04T03:43:13;13.65;;;3.40;;
59006;SDS011;44792;52.760;6.726;2024-02-04T03:45:39;10.63;;;3.85;;
59006;SDS011;44792;52.760;6.726;2024-02-04T03:48:05;16.83;;;3.60;;
59006;SDS011;44792;52.760;6.726;2024-02-04T03:50:31;9.27;;;3.28;;
59006;SDS011;44792;52.760;6.726;2024-02-04T03:52:57;10.98;;;3.83;;
59006;SDS011;44792;52.760;6.726;2024-02-04T03:55:22;12.20;;;4.82;;
59006;SDS011;44792;52.760;6.726;2024-02-04T03:57:48;12.10;;;3.40;;
59006;SDS011;44792;52.760;6.726;2024-02-04T04:00:14;8.80;;;3.60;;
59006;SDS011;44792;52.760;6.726;2024-02-04T04:02:40;11.30;;;3.50;;
59006;SDS011;44792;52.760;6.726;2024-02-04T04:05:10;7.40;;;2.60;;
59006;SDS011;44792;52.760;6.726;2024-02-04T04:07:38;10.48;;;2.90;;
59006;SDS011;44792;52.760;6.726;2024-02-04T04:10:05;12.43;;;3.03;;
59006;SDS011;44792;52.760;6.726;2024-02-04T04:12:30;8.70;;;2.72;;
59006;SDS011;44792;52.760;6.726;2024-02-04T04:14:56;8.32;;;2.55;;
59006;SDS011;44792;52.760;6.726;2024-02-04T04:17:22;9.88;;;2.40;;
59006;SDS011;44792;52.760;6.726;2024-02-04T04:19:48;10.73;;;2.72;;
59006;SDS011;44792;52.760;6.726;2024-02-04T04:22:13;11.73;;;2.60;;
59006;SDS011;44792;52.760;6.726;2024-02-04T04:24:39;8.27;;;2.50;;
59006;SDS011;44792;52.760;6.726;2024-02-04T04:27:05;14.90;;;2.70;;
59006;SDS011;44792;52.760;6.726;2024-02-04T04:29:30;11.07;;;2.67;;
59006;SDS011;44792;52.760;6.726;2024-02-04T04:31:56;10.75;;;2.58;;
59006;SDS011;44792;52.760;6.726;2024-02-04T04:34:22;6.78;;;2.20;;
59006;SDS011;44792;52.760;6.726;2024-02-04T04:36:47;11.90;;;2.88;;
59006;SDS011;44792;52.760;6.726;2024-02-04T04:39:13;9.90;;;2.65;;
59006;SDS011;44792;52.760;6.726;2024-02-04T04:41:39;8.20;;;2.53;;
59006;SDS011;44792;52.760;6.726;2024-02-04T04:44:07;10.90;;;2.42;;
59006;SDS011;44792;52.760;6.726;2024-02-04T04:46:32;7.53;;;2.47;;
59006;SDS011;44792;52.760;6.726;2024-02-04T04:48:58;6.80;;;2.50;;
59006;SDS011;44792;52.760;6.726;2024-02-04T04:51:25;10.27;;;2.22;;
59006;SDS011;44792;52.760;6.726;2024-02-04T04:53:50;9.18;;;2.78;;
59006;SDS011;44792;52.760;6.726;2024-02-04T04:56:16;9.18;;;2.22;;
59006;SDS011;44792;52.760;6.726;2024-02-04T04:58:42;7.30;;;2.08;;
59006;SDS011;44792;52.760;6.726;2024-02-04T05:01:07;10.98;;;2.42;;
59006;SDS011;44792;52.760;6.726;2024-02-04T05:03:33;10.95;;;2.10;;
59006;SDS011;44792;52.760;6.726;2024-02-04T05:05:59;11.95;;;2.53;;
59006;SDS011;44792;52.760;6.726;2024-02-04T05:08:26;8.43;;;2.47;;
59006;SDS011;44792;52.760;6.726;2024-02-04T05:10:52;9.15;;;2.67;;
59006;SDS011;44792;52.760;6.726;2024-02-04T05:13:17;7.30;;;2.20;;
59006;SDS011;44792;52.760;6.726;2024-02-04T05:15:43;6.60;;;2.15;;
59006;SDS011;44792;52.760;6.726;2024-02-04T05:18:08;14.80;;;2.55;;
59006;SDS011;44792;52.760;6.726;2024-02-04T05:20:34;8.23;;;2.72;;
59006;SDS011;44792;52.760;6.726;2024-02-04T05:23:00;11.63;;;2.95;;
59006;SDS011;44792;52.760;6.726;2024-02-04T05:25:26;8.02;;;2.72;;
59006;SDS011;44792;52.760;6.726;2024-02-04T05:27:51;10.68;;;2.55;;
59006;SDS011;44792;52.760;6.726;2024-02-04T05:30:17;12.50;;;2.08;;
59006;SDS011;44792;52.760;6.726;2024-02-04T05:32:43;13.23;;;3.25;;
59006;SDS011;44792;52.760;6.726;2024-02-04T05:35:10;9.05;;;2.80;;
59006;SDS011;44792;52.760;6.726;2024-02-04T05:37:36;8.73;;;3.38;;
59006;SDS011;44792;52.760;6.726;2024-02-04T05:40:02;9.23;;;2.15;;
59006;SDS011;44792;52.760;6.726;2024-02-04T05:42:29;11.65;;;2.70;;
59006;SDS011;44792;52.760;6.726;2024-02-04T05:44:56;6.75;;;2.13;;
59006;SDS011;44792;52.760;6.726;2024-02-04T05:47:22;6.07;;;2.42;;
59006;SDS011;44792;52.760;6.726;2024-02-04T05:49:48;5.63;;;1.92;;
59006;SDS011;44792;52.760;6.726;2024-02-04T05:52:14;8.48;;;3.30;;
59006;SDS011;44792;52.760;6.726;2024-02-04T05:54:40;12.85;;;2.80;;
59006;SDS011;44792;52.760;6.726;2024-02-04T05:57:05;11.23;;;2.03;;
59006;SDS011;44792;52.760;6.726;2024-02-04T05:59:32;7.90;;;2.30;;
59006;SDS011;44792;52.760;6.726;2024-02-04T06:01:58;9.93;;;2.45;;
59006;SDS011;44792;52.760;6.726;2024-02-04T06:04:24;15.25;;;2.35;;
59006;SDS011;44792;52.760;6.726;2024-02-04T06:06:49;12.02;;;2.10;;
59006;SDS011;44792;52.760;6.726;2024-02-04T06:09:15;12.60;;;2.42;;
59006;SDS011;44792;52.760;6.726;2024-02-04T06:11:44;11.15;;;2.55;;
59006;SDS011;44792;52.760;6.726;2024-02-04T06:14:11;11.07;;;2.50;;
59006;SDS011;44792;52.760;6.726;2024-02-04T06:16:36;11.48;;;3.28;;
59006;SDS011;44792;52.760;6.726;2024-02-04T06:19:02;14.80;;;2.55;;
59006;SDS011;44792;52.760;6.726;2024-02-04T06:21:28;7.70;;;2.30;;
59006;SDS011;44792;52.760;6.726;2024-02-04T06:23:54;15.50;;;2.38;;
59006;SDS011;44792;52.760;6.726;2024-02-04T06:26:19;14.25;;;2.25;;
59006;SDS011;44792;52.760;6.726;2024-02-04T06:28:45;14.20;;;3.17;;
59006;SDS011;44792;52.760;6.726;2024-02-04T06:31:13;8.85;;;2.28;;
59006;SDS011;44792;52.760;6.726;2024-02-04T06:33:39;8.23;;;2.28;;
59006;SDS011;44792;52.760;6.726;2024-02-04T06:36:08;11.50;;;2.10;;
59006;SDS011;44792;52.760;6.726;2024-02-04T06:38:35;12.05;;;2.50;;
59006;SDS011;44792;52.760;6.726;2024-02-04T06:41:01;10.20;;;3.25;;
59006;SDS011;44792;52.760;6.726;2024-02-04T06:43:26;9.85;;;2.40;;
59006;SDS011;44792;52.760;6.726;2024-02-04T06:45:52;10.57;;;2.55;;
59006;SDS011;44792;52.760;6.726;2024-02-04T06:48:21;11.07;;;2.25;;
59006;SDS011;44792;52.760;6.726;2024-02-04T06:50:46;10.13;;;2.63;;
59006;SDS011;44792;52.760;6.726;2024-02-04T06:53:15;5.07;;;2.17;;
59006;SDS011;44792;52.760;6.726;2024-02-04T06:55:41;16.25;;;3.92;;
59006;SDS011;44792;52.760;6.726;2024-02-04T06:58:06;7.15;;;2.17;;
59006;SDS011;44792;52.760;6.726;2024-02-04T07:00:32;11.00;;;2.30;;
59006;SDS011;44792;52.760;6.726;2024-02-04T07:02:58;7.25;;;2.10;;
59006;SDS011;44792;52.760;6.726;2024-02-04T07:05:24;13.77;;;2.60;;
59006;SDS011;44792;52.760;6.726;2024-02-04T07:07:50;12.52;;;2.30;;
59006;SDS011;44792;52.760;6.726;2024-02-04T07:10:16;11.35;;;2.72;;
59006;SDS011;44792;52.760;6.726;2024-02-04T07:12:42;11.98;;;2.25;;
59006;SDS011;44792;52.760;6.726;2024-02-04T07:15:08;10.43;;;2.25;;
59006;SDS011;44792;52.760;6.726;2024-02-04T07:17:34;12.00;;;2.65;;
59006;SDS011;44792;52.760;6.726;2024-02-04T07:20:00;10.40;;;2.80;;
59006;SDS011;44792;52.760;6.726;2024-02-04T07:22:27;11.63;;;2.80;;
59006;SDS011;44792;52.760;6.726;2024-02-04T07:24:53;13.98;;;2.97;;
59006;SDS011;44792;52.760;6.726;2024-02-04T07:27:19;12.65;;;3.25;;
59006;SDS011;44792;52.760;6.726;2024-02-04T07:29:45;16.52;;;2.72;;
59006;SDS011;44792;52.760;6.726;2024-02-04T07:32:12;10.30;;;2.92;;
59006;SDS011;44792;52.760;6.726;2024-02-04T07:34:38;15.35;;;3.03;;
59006;SDS011;44792;52.760;6.726;2024-02-04T07:37:04;11.75;;;2.70;;
59006;SDS011;44792;52.760;6.726;2024-02-04T07:39:29;13.05;;;2.67;;
59006;SDS011;44792;52.760;6.726;2024-02-04T07:41:56;13.85;;;3.00;;
59006;SDS011;44792;52.760;6.726;2024-02-04T07:44:25;13.60;;;2.67;;
59006;SDS011;44792;52.760;6.726;2024-02-04T07:46:54;11.32;;;3.08;;
59006;SDS011;44792;52.760;6.726;2024-02-04T07:49:20;15.15;;;2.80;;
59006;SDS011;44792;52.760;6.726;2024-02-04T07:51:46;8.18;;;2.78;;
59006;SDS011;44792;52.760;6.726;2024-02-04T07:54:12;15.15;;;2.42;;
59006;SDS011;44792;52.760;6.726;2024-02-04T07:56:37;10.05;;;2.03;;
59006;SDS011;44792;52.760;6.726;2024-02-04T07:59:03;17.73;;;2.85;;
59006;SDS011;44792;52.760;6.726;2024-02-04T08:01:29;16.00;;;3.08;;
59006;SDS011;44792;52.760;6.726;2024-02-04T08:03:55;14.10;;;3.75;;
59006;SDS011;44792;52.760;6.726;2024-02-04T08:06:21;8.95;;;2.20;;
59006;SDS011;44792;52.760;6.726;2024-02-04T08:08:47;9.77;;;2.38;;
59006;SDS011;44792;52.760;6.726;2024-02-04T08:11:20;14.15;;;2.72;;
59006;SDS011;44792;52.760;6.726;2024-02-04T08:13:46;9.93;;;2.10;;
59006;SDS011;44792;52.760;6.726;2024-02-04T08:16:12;14.90;;;3.53;;
59006;SDS011;44792;52.760;6.726;2024-02-04T08:18:38;9.77;;;2.85;;
59006;SDS011;44792;52.760;6.726;2024-02-04T08:21:03;17.83;;;2.78;;
59006;SDS011;44792;52.760;6.726;2024-02-04T08:23:29;11.60;;;2.70;;
59006;SDS011;44792;52.760;6.726;2024-02-04T08:25:55;12.98;;;2.70;;
59006;SDS011;44792;52.760;6.726;2024-02-04T08:28:22;12.98;;;3.50;;
59006;SDS011;44792;52.760;6.726;2024-02-04T08:30:48;11.20;;;2.67;;
59006;SDS011;44792;52.760;6.726;2024-02-04T08:33:14;9.13;;;2.47;;
59006;SDS011;44792;52.760;6.726;2024-02-04T08:35:40;6.68;;;2.80;;
59006;SDS011;44792;52.760;6.726;2024-02-04T08:38:06;11.05;;;2.50;;
59006;SDS011;44792;52.760;6.726;2024-02-04T08:40:31;6.88;;;2.58;;
59006;SDS011;44792;52.760;6.726;2024-02-04T08:42:57;12.10;;;2.88;;
59006;SDS011;44792;52.760;6.726;2024-02-04T08:45:23;11.52;;;2.83;;
59006;SDS011;44792;52.760;6.726;2024-02-04T08:47:48;10.20;;;2.40;;
59006;SDS011;44792;52.760;6.726;2024-02-04T08:50:14;7.40;;;2.40;;
59006;SDS011;44792;52.760;6.726;2024-02-04T08:52:40;7.05;;;2.60;;
59006;SDS011;44792;52.760;6.726;2024-02-04T08:55:06;8.20;;;3.47;;
59006;SDS011;44792;52.760;6.726;2024-02-04T08:57:32;6.30;;;2.38;;
59006;SDS011;44792;52.760;6.726;2024-02-04T08:59:58;6.30;;;2.42;;
59006;SDS011;44792;52.760;6.726;2024-02-04T09:02:23;4.80;;;2.80;;
59006;SDS011;44792;52.760;6.726;2024-02-04T09:04:49;5.15;;;2.60;;
59006;SDS011;44792;52.760;6.726;2024-02-04T09:07:15;4.40;;;2.50;;
59006;SDS011;44792;52.760;6.726;2024-02-04T09:09:40;5.40;;;2.78;;
59006;SDS011;44792;52.760;6.726;2024-02-04T09:12:07;8.73;;;2.63;;
59006;SDS011;44792;52.760;6.726;2024-02-04T09:14:34;6.70;;;2.55;;
59006;SDS011;44792;52.760;6.726;2024-02-04T09:17:03;7.60;;;3.03;;
59006;SDS011;44792;52.760;6.726;2024-02-04T09:19:30;11.20;;;3.20;;
59006;SDS011;44792;52.760;6.726;2024-02-04T09:21:56;7.22;;;3.72;;
59006;SDS011;44792;52.760;6.726;2024-02-04T09:24:22;8.07;;;3.17;;
59006;SDS011;44792;52.760;6.726;2024-02-04T09:26:47;8.23;;;2.80;;
59006;SDS011;44792;52.760;6.726;2024-02-04T09:29:13;8.65;;;2.78;;
59006;SDS011;44792;52.760;6.726;2024-02-04T09:31:39;9.38;;;2.85;;
59006;SDS011;44792;52.760;6.726;2024-02-04T09:34:05;12.35;;;2.88;;
59006;SDS011;44792;52.760;6.726;2024-02-04T09:36:31;8.93;;;2.35;;
59006;SDS011;44792;52.760;6.726;2024-02-04T09:38:56;8.07;;;2.35;;
59006;SDS011;44792;52.760;6.726;2024-02-04T09:41:22;8.77;;;3.00;;
59006;SDS011;44792;52.760;6.726;2024-02-04T09:43:52;3.80;;;2.00;;
59006;SDS011;44792;52.760;6.726;2024-02-04T09:46:18;6.63;;;2.60;;
59006;SDS011;44792;52.760;6.726;2024-02-04T09:48:44;7.45;;;3.08;;
59006;SDS011;44792;52.760;6.726;2024-02-04T09:51:11;6.00;;;2.03;;
59006;SDS011;44792;52.760;6.726;2024-02-04T09:53:38;7.20;;;3.05;;
59006;SDS011;44792;52.760;6.726;2024-02-04T09:56:08;3.65;;;2.10;;
59006;SDS011;44792;52.760;6.726;2024-02-04T09:58:36;9.93;;;2.03;;
59006;SDS011;44792;52.760;6.726;2024-02-04T10:01:04;7.47;;;3.00;;
59006;SDS011;44792;52.760;6.726;2024-02-04T10:03:30;7.15;;;2.13;;
59006;SDS011;44792;52.760;6.726;2024-02-04T10:05:56;7.78;;;2.20;;
59006;SDS011;44792;52.760;6.726;2024-02-04T10:08:22;3.17;;;2.38;;
59006;SDS011;44792;52.760;6.726;2024-02-04T10:10:48;5.35;;;1.98;;
59006;SDS011;44792;52.760;6.726;2024-02-04T10:13:14;7.25;;;2.03;;
59006;SDS011;44792;52.760;6.726;2024-02-04T10:15:39;5.72;;;2.67;;
59006;SDS011;44792;52.760;6.726;2024-02-04T10:18:06;8.82;;;2.08;;
59006;SDS011;44792;52.760;6.726;2024-02-04T10:20:32;7.57;;;2.33;;
59006;SDS011;44792;52.760;6.726;2024-02-04T10:22:58;5.82;;;1.95;;
59006;SDS011;44792;52.760;6.726;2024-02-04T10:25:24;8.13;;;2.60;;
59006;SDS011;44792;52.760;6.726;2024-02-04T10:27:50;7.90;;;1.90;;
59006;SDS011;44792;52.760;6.726;2024-02-04T10:30:18;3.22;;;2.40;;
59006;SDS011;44792;52.760;6.726;2024-02-04T10:32:50;7.95;;;2.20;;
59006;SDS011;44792;52.760;6.726;2024-02-04T10:35:16;3.65;;;2.33;;
59006;SDS011;44792;52.760;6.726;2024-02-04T10:37:44;5.65;;;2.22;;
59006;SDS011;44792;52.760;6.726;2024-02-04T10:40:10;10.02;;;2.22;;
59006;SDS011;44792;52.760;6.726;2024-02-04T10:42:36;3.40;;;1.90;;
59006;SDS011;44792;52.760;6.726;2024-02-04T10:45:07;8.13;;;1.83;;
59006;SDS011;44792;52.760;6.726;2024-02-04T10:47:36;2.55;;;1.63;;
59006;SDS011;44792;52.760;6.726;2024-02-04T10:50:03;4.55;;;1.90;;
59006;SDS011;44792;52.760;6.726;2024-02-04T10:52:32;4.10;;;1.60;;
59006;SDS011;44792;52.760;6.726;2024-02-04T10:55:08;4.05;;;2.00;;
59006;SDS011;44792;52.760;6.726;2024-02-04T10:57:38;5.90;;;2.03;;
59006;SDS011;44792;52.760;6.726;2024-02-04T11:00:04;7.13;;;3.08;;
59006;SDS011;44792;52.760;6.726;2024-02-04T11:02:34;12.02;;;4.25;;
59006;SDS011;44792;52.760;6.726;2024-02-04T11:05:03;9.48;;;3.05;;
59006;SDS011;44792;52.760;6.726;2024-02-04T11:07:31;4.85;;;2.17;;
59006;SDS011;44792;52.760;6.726;2024-02-04T11:10:01;5.30;;;2.50;;
59006;SDS011;44792;52.760;6.726;2024-02-04T11:12:28;5.78;;;2.28;;
59006;SDS011;44792;52.760;6.726;2024-02-04T11:14:57;3.00;;;2.30;;
59006;SDS011;44792;52.760;6.726;2024-02-04T11:28:12;3.67;;;2.13;;
59006;SDS011;44792;52.760;6.726;2024-02-04T11:30:40;5.63;;;2.80;;
59006;SDS011;44792;52.760;6.726;2024-02-04T11:33:09;7.47;;;2.67;;
59006;SDS011;44792;52.760;6.726;2024-02-04T11:35:36;7.15;;;2.70;;
59006;SDS011;44792;52.760;6.726;2024-02-04T11:38:02;8.98;;;3.20;;
59006;SDS011;44792;52.760;6.726;2024-02-04T11:40:35;6.40;;;3.15;;
59006;SDS011;44792;52.760;6.726;2024-02-04T11:43:10;7.85;;;3.15;;
59006;SDS011;44792;52.760;6.726;2024-02-04T11:45:37;6.03;;;2.90;;
59006;SDS011;44792;52.760;6.726;2024-02-04T11:48:10;6.30;;;3.50;;
59006;SDS011;44792;52.760;6.726;2024-02-04T11:50:36;5.72;;;3.05;;
59006;SDS011;44792;52.760;6.726;2024-02-04T11:53:12;5.43;;;2.55;;
59006;SDS011;44792;52.760;6.726;2024-02-04T11:55:39;5.70;;;2.25;;
59006;SDS011;44792;52.760;6.726;2024-02-04T11:58:06;3.58;;;2.38;;
59006;SDS011;44792;52.760;6.726;2024-02-04T12:00:35;5.10;;;2.50;;
59006;SDS011;44792;52.760;6.726;2024-02-04T12:03:02;7.40;;;2.63;;
59006;SDS011;44792;52.760;6.726;2024-02-04T12:05:28;6.10;;;2.10;;
59006;SDS011;44792;52.760;6.726;2024-02-04T12:08:01;3.95;;;2.28;;
59006;SDS011;44792;52.760;6.726;2024-02-04T12:10:28;11.82;;;2.17;;
59006;SDS011;44792;52.760;6.726;2024-02-04T12:12:55;2.33;;;1.80;;
59006;SDS011;44792;52.760;6.726;2024-02-04T12:15:22;2.78;;;2.17;;
59006;SDS011;44792;52.760;6.726;2024-02-04T12:17:48;10.52;;;3.35;;
59006;SDS011;44792;52.760;6.726;2024-02-04T12:20:14;3.75;;;2.03;;
59006;SDS011;44792;52.760;6.726;2024-02-04T12:22:40;6.97;;;2.00;;
59006;SDS011;44792;52.760;6.726;2024-02-04T12:25:05;5.63;;;1.92;;
59006;SDS011;44792;52.760;6.726;2024-02-04T12:27:31;4.95;;;1.83;;
59006;SDS011;44792;52.760;6.726;2024-02-04T12:29:57;7.93;;;1.70;;
59006;SDS011;44792;52.760;6.726;2024-02-04T12:32:24;4.22;;;2.13;;
59006;SDS011;44792;52.760;6.726;2024-02-04T12:34:50;4.88;;;2.00;;
59006;SDS011;44792;52.760;6.726;2024-02-04T12:37:21;4.75;;;1.48;;
59006;SDS011;44792;52.760;6.726;2024-02-04T12:39:47;5.65;;;2.25;;
59006;SDS011;44792;52.760;6.726;2024-02-04T12:42:16;4.13;;;1.90;;
59006;SDS011;44792;52.760;6.726;2024-02-04T12:44:46;4.80;;;1.90;;
59006;SDS011;44792;52.760;6.726;2024-02-04T12:47:13;3.03;;;1.48;;
59006;SDS011;44792;52.760;6.726;2024-02-04T12:49:43;5.00;;;1.45;;
59006;SDS011;44792;52.760;6.726;2024-02-04T12:52:09;3.83;;;1.50;;
59006;SDS011;44792;52.760;6.726;2024-02-04T12:54:44;6.65;;;1.73;;
59006;SDS011;44792;52.760;6.726;2024-02-04T12:57:10;4.47;;;1.65;;
59006;SDS011;44792;52.760;6.726;2024-02-04T12:59:46;4.05;;;1.88;;
59006;SDS011;44792;52.760;6.726;2024-02-04T13:02:13;4.60;;;1.50;;
59006;SDS011;44792;52.760;6.726;2024-02-04T13:04:40;7.72;;;1.83;;
59006;SDS011;44792;52.760;6.726;2024-02-04T13:07:12;3.70;;;1.70;;
59006;SDS011;44792;52.760;6.726;2024-02-04T13:09:39;4.78;;;1.80;;
59006;SDS011;44792;52.760;6.726;2024-02-04T13:12:06;7.53;;;2.13;;
59006;SDS011;44792;52.760;6.726;2024-02-04T13:14:34;12.23;;;2.30;;
59006;SDS011;44792;52.760;6.726;2024-02-04T13:17:00;2.22;;;1.60;;
59006;SDS011;44792;52.760;6.726;2024-02-04T13:19:35;2.00;;;1.50;;
59006;SDS011;44792;52.760;6.726;2024-02-04T13:22:02;3.25;;;1.67;;
59006;SDS011;44792;52.760;6.726;2024-02-04T13:24:31;5.25;;;1.50;;
59006;SDS011;44792;52.760;6.726;2024-02-04T13:26:58;6.05;;;1.63;;
59006;SDS011;44792;52.760;6.726;2024-02-04T13:29:26;3.60;;;1.50;;
59006;SDS011;44792;52.760;6.726;2024-02-04T13:31:54;4.63;;;1.30;;
59006;SDS011;44792;52.760;6.726;2024-02-04T13:34:20;4.72;;;1.88;;
59006;SDS011;44792;52.760;6.726;2024-02-04T13:36:46;3.53;;;1.50;;
59006;SDS011;44792;52.760;6.726;2024-02-04T13:39:12;5.15;;;1.40;;
59006;SDS011;44792;52.760;6.726;2024-02-04T13:41:39;5.20;;;1.88;;
59006;SDS011;44792;52.760;6.726;2024-02-04T13:44:05;5.53;;;1.77;;
59006;SDS011;44792;52.760;6.726;2024-02-04T13:46:31;5.13;;;1.60;;
59006;SDS011;44792;52.760;6.726;2024-02-04T13:48:57;2.53;;;1.52;;
59006;SDS011;44792;52.760;6.726;2024-02-04T13:51:23;5.90;;;1.65;;
59006;SDS011;44792;52.760;6.726;2024-02-04T13:53:48;2.55;;;1.50;;
59006;SDS011;44792;52.760;6.726;2024-02-04T13:56:14;6.13;;;1.73;;
59006;SDS011;44792;52.760;6.726;2024-02-04T13:58:40;7.00;;;1.65;;
59006;SDS011;44792;52.760;6.726;2024-02-04T14:01:05;2.85;;;1.60;;
59006;SDS011;44792;52.760;6.726;2024-02-04T14:03:31;3.05;;;1.63;;
59006;SDS011;44792;52.760;6.726;2024-02-04T14:05:57;4.75;;;2.13;;
59006;SDS011;44792;52.760;6.726;2024-02-04T14:08:23;6.40;;;1.83;;
59006;SDS011;44792;52.760;6.726;2024-02-04T14:10:48;4.40;;;1.60;;
59006;SDS011;44792;52.760;6.726;2024-02-04T14:13:14;5.55;;;1.83;;
59006;SDS011;44792;52.760;6.726;2024-02-04T14:15:40;4.90;;;1.40;;
59006;SDS011;44792;52.760;6.726;2024-02-04T14:18:06;6.75;;;2.22;;
59006;SDS011;44792;52.760;6.726;2024-02-04T14:20:32;5.03;;;1.33;;
59006;SDS011;44792;52.760;6.726;2024-02-04T14:22:58;3.85;;;1.77;;
59006;SDS011;44792;52.760;6.726;2024-02-04T14:25:23;4.50;;;1.75;;
59006;SDS011;44792;52.760;6.726;2024-02-04T14:27:52;5.43;;;2.05;;
59006;SDS011;44792;52.760;6.726;2024-02-04T14:30:18;6.57;;;2.67;;
59006;SDS011;44792;52.760;6.726;2024-02-04T14:32:44;6.35;;;2.67;;
59006;SDS011;44792;52.760;6.726;2024-02-04T14:35:10;14.73;;;3.90;;
59006;SDS011;44792;52.760;6.726;2024-02-04T14:37:36;16.13;;;4.72;;
59006;SDS011;44792;52.760;6.726;2024-02-04T14:40:04;11.15;;;4.00;;
59006;SDS011;44792;52.760;6.726;2024-02-04T14:42:31;9.50;;;2.97;;
59006;SDS011;44792;52.760;6.726;2024-02-04T14:44:57;11.00;;;4.22;;
59006;SDS011;44792;52.760;6.726;2024-02-04T14:47:26;14.27;;;5.20;;
59006;SDS011;44792;52.760;6.726;2024-02-04T14:49:53;3.42;;;2.58;;
59006;SDS011;44792;52.760;6.726;2024-02-04T14:52:19;12.40;;;6.10;;
59006;SDS011;44792;52.760;6.726;2024-02-04T14:54:45;7.07;;;3.90;;